WXM80 ListenWXM80 Stop

You find our weather info also at:

UK Metoffice

WeatherCloud

Weather Underground

Northeastern Weather Network

AWEKAS

Citizen Weather Observer Program (CWOP)

HAMweather, WeatherForYou, PWS Weather


Weather Underground History page Text

Daily Summary for November 3, 2017 Units:  Both    English   Metric
« Previous Day
Next Day »
Daily Weekly Monthly Yearly Custom
  High: Low: Average:
Temperature: 76.4 °F /  24.7 °C 53.0 °F /  11.7 °C 65.8 °F /  18.8 °C
Dew Point: 66.6 °F /  19.2 °C 40.3 °F /  4.6 °C 59.8 °F /  15.4 °C
Humidity: 98 % 60 % 82 %
Wind Speed: 12.3 mph /  19.8 km/h - 2.9 mph /  4.7 km/h
Wind Gust: 20.7 mph /  33.3 km/h - -
Wind:- - SSW
Pressure: 30.21 in /  1022.9 hPa 29.94 in /  1013.8 hPa -
Precipitation: 0.26 in /  6.6 mm    
Historical Graphs
 
 
Tabular Data for November 3, 2017
Time Temperature Dew Point Pressure Wind Wind Speed Wind Gust Humidity Rainfall Rate (Hourly)
00:01 62.2 °F /  16.8 °C 60.8 °F /  16 °C 30.20 in /  1022.6 hPa Calm   1.2 mph /  1.9 km/h 95 % 0.02 in /  0.51 mm
00:06 62.2 °F /  16.8 °C 60.8 °F /  16 °C 30.20 in /  1022.6 hPa Calm   2.3 mph /  3.7 km/h 95 % 0.02 in /  0.51 mm
00:11 62.2 °F /  16.8 °C 60.8 °F /  16 °C 30.20 in /  1022.6 hPa SW 0.2 mph /  0.3 km/h 1.2 mph /  1.9 km/h 95 % 0.01 in /  0.25 mm
00:16 62.2 °F /  16.8 °C 60.8 °F /  16 °C 30.20 in /  1022.6 hPa SSW 0.3 mph /  0.5 km/h 3.5 mph /  5.6 km/h 95 % 0.01 in /  0.25 mm
00:21 62.2 °F /  16.8 °C 60.8 °F /  16 °C 30.19 in /  1022.2 hPa SSW 0.2 mph /  0.3 km/h 2.3 mph /  3.7 km/h 95 % 0.01 in /  0.25 mm
00:26 62.3 °F /  16.8 °C 61.1 °F /  16.2 °C 30.19 in /  1022.2 hPa SW 0.5 mph /  0.8 km/h 2.3 mph /  3.7 km/h 96 % 0.02 in /  0.51 mm
00:31 62.3 °F /  16.8 °C 61.1 °F /  16.2 °C 30.20 in /  1022.6 hPa Calm   1.2 mph /  1.9 km/h 96 % 0.02 in /  0.51 mm
00:36 62.3 °F /  16.8 °C 61.1 °F /  16.2 °C 30.19 in /  1022.2 hPa Calm   1.2 mph /  1.9 km/h 96 % 0.02 in /  0.51 mm
00:42 62.4 °F /  16.9 °C 61.2 °F /  16.2 °C 30.19 in /  1022.2 hPa Calm   1.2 mph /  1.9 km/h 96 % 0.02 in /  0.51 mm
00:46 62.3 °F /  16.8 °C 61.1 °F /  16.2 °C 30.18 in /  1021.9 hPa Calm   1.2 mph /  1.9 km/h 96 % 0.02 in /  0.51 mm
00:51 62.3 °F /  16.8 °C 61.1 °F /  16.2 °C 30.19 in /  1022.2 hPa Calm   1.2 mph /  1.9 km/h 96 % 0.01 in /  0.25 mm
00:57 62.3 °F /  16.8 °C 61.1 °F /  16.2 °C 30.18 in /  1021.9 hPa SSE 0.2 mph /  0.3 km/h   96 % 0.01 in /  0.25 mm
01:02 62.2 °F /  16.8 °C 60.8 °F /  16 °C 30.18 in /  1021.9 hPa Calm     95 % 0.02 in /  0.51 mm
01:07 62.1 °F /  16.7 °C 60.7 °F /  15.9 °C 30.18 in /  1021.9 hPa Calm     95 % 0.02 in /  0.51 mm
01:12 62.1 °F /  16.7 °C 60.7 °F /  15.9 °C 30.18 in /  1021.9 hPa SSE 0.1 mph /  0.2 km/h 1.2 mph /  1.9 km/h 95 % 0.02 in /  0.51 mm
01:17 62.0 °F /  16.7 °C 60.6 °F /  15.9 °C 30.18 in /  1021.9 hPa SSW 0.1 mph /  0.2 km/h 2.3 mph /  3.7 km/h 95 % 0.02 in /  0.51 mm
01:22 62.0 °F /  16.7 °C 60.6 °F /  15.9 °C 30.17 in /  1021.6 hPa Calm     95 % 0.02 in /  0.51 mm
01:27 61.9 °F /  16.6 °C 60.5 °F /  15.8 °C 30.17 in /  1021.6 hPa South 0.1 mph /  0.2 km/h 1.2 mph /  1.9 km/h 95 % 0.01 in /  0.25 mm
01:32 61.9 °F /  16.6 °C 60.7 °F /  15.9 °C 30.17 in /  1021.6 hPa SSW 0.6 mph /  1 km/h 3.5 mph /  5.6 km/h 96 % 0.01 in /  0.25 mm
01:37 61.9 °F /  16.6 °C 60.7 °F /  15.9 °C 30.17 in /  1021.6 hPa SSW 0.2 mph /  0.3 km/h 3.5 mph /  5.6 km/h 96 % 0.01 in /  0.25 mm
01:42 62.0 °F /  16.7 °C 60.8 °F /  16 °C 30.17 in /  1021.6 hPa SSW 2.2 mph /  3.5 km/h 3.5 mph /  5.6 km/h 96 % 0.02 in /  0.51 mm
01:47 62.2 °F /  16.8 °C 61.0 °F /  16.1 °C 30.17 in /  1021.6 hPa SSW 2.0 mph /  3.2 km/h 3.5 mph /  5.6 km/h 96 % 0.02 in /  0.51 mm
01:52 62.2 °F /  16.8 °C 61.0 °F /  16.1 °C 30.16 in /  1021.2 hPa South 0.6 mph /  1 km/h 2.3 mph /  3.7 km/h 96 % 0.02 in /  0.51 mm
01:57 62.3 °F /  16.8 °C 61.1 °F /  16.2 °C 30.16 in /  1021.2 hPa SSW 0.2 mph /  0.3 km/h 1.2 mph /  1.9 km/h 96 % 0.02 in /  0.51 mm
02:02 62.3 °F /  16.8 °C 61.1 °F /  16.2 °C 30.16 in /  1021.2 hPa South 1.8 mph /  2.9 km/h 3.5 mph /  5.6 km/h 96 % 0.01 in /  0.25 mm
02:07 62.4 °F /  16.9 °C 61.2 °F /  16.2 °C 30.16 in /  1021.2 hPa SSW 1.2 mph /  1.9 km/h 3.5 mph /  5.6 km/h 96 % 0.01 in /  0.25 mm
02:12 62.5 °F /  16.9 °C 61.3 °F /  16.3 °C 30.16 in /  1021.2 hPa South 2.1 mph /  3.4 km/h 4.6 mph /  7.4 km/h 96 % 0.01 in /  0.25 mm
02:17 62.5 °F /  16.9 °C 61.3 °F /  16.3 °C 30.17 in /  1021.6 hPa SSW 1.6 mph /  2.6 km/h 3.5 mph /  5.6 km/h 96 % 0.02 in /  0.51 mm
02:22 62.6 °F /  17 °C 61.7 °F /  16.5 °C 30.16 in /  1021.2 hPa SSW 1.9 mph /  3.1 km/h 4.0 mph /  6.4 km/h 97 % 0.02 in /  0.51 mm
02:27 62.6 °F /  17 °C 61.4 °F /  16.3 °C 30.16 in /  1021.2 hPa WSW 0.5 mph /  0.8 km/h 2.3 mph /  3.7 km/h 96 % 0.02 in /  0.51 mm
02:32 62.6 °F /  17 °C 61.7 °F /  16.5 °C 30.16 in /  1021.2 hPa South 1.1 mph /  1.8 km/h 3.5 mph /  5.6 km/h 97 % 0.02 in /  0.51 mm
02:37 62.6 °F /  17 °C 61.4 °F /  16.3 °C 30.16 in /  1021.2 hPa South 1.7 mph /  2.7 km/h 4.0 mph /  6.4 km/h 96 % 0.02 in /  0.51 mm
02:42 62.7 °F /  17.1 °C 61.5 °F /  16.4 °C 30.16 in /  1021.2 hPa SSW 2.0 mph /  3.2 km/h 3.5 mph /  5.6 km/h 96 % 0.01 in /  0.25 mm
02:47 62.7 °F /  17.1 °C 61.5 °F /  16.4 °C 30.15 in /  1020.9 hPa WSW 0.9 mph /  1.4 km/h 3.5 mph /  5.6 km/h 96 % 0.01 in /  0.25 mm
02:52 62.7 °F /  17.1 °C 61.5 °F /  16.4 °C 30.15 in /  1020.9 hPa WSW 1.9 mph /  3.1 km/h 4.0 mph /  6.4 km/h 96 % 0.01 in /  0.25 mm
02:57 62.7 °F /  17.1 °C 61.5 °F /  16.4 °C 30.15 in /  1020.9 hPa SW 1.8 mph /  2.9 km/h 4.6 mph /  7.4 km/h 96 % 0.02 in /  0.51 mm
03:02 62.7 °F /  17.1 °C 61.5 °F /  16.4 °C 30.15 in /  1020.9 hPa SSW 1.8 mph /  2.9 km/h 4.6 mph /  7.4 km/h 96 % 0.02 in /  0.51 mm
03:07 62.7 °F /  17.1 °C 61.5 °F /  16.4 °C 30.15 in /  1020.9 hPa SSW 2.8 mph /  4.5 km/h 3.5 mph /  5.6 km/h 96 % 0.02 in /  0.51 mm
03:12 62.7 °F /  17.1 °C 61.5 °F /  16.4 °C 30.14 in /  1020.5 hPa WSW 2.1 mph /  3.4 km/h 3.5 mph /  5.6 km/h 96 % 0.02 in /  0.51 mm
03:17 62.7 °F /  17.1 °C 61.5 °F /  16.4 °C 30.14 in /  1020.5 hPa SW 1.0 mph /  1.6 km/h 3.5 mph /  5.6 km/h 96 % 0.01 in /  0.25 mm
03:22 62.7 °F /  17.1 °C 61.5 °F /  16.4 °C 30.14 in /  1020.5 hPa SW 1.5 mph /  2.4 km/h 3.5 mph /  5.6 km/h 96 % 0.01 in /  0.25 mm
03:27 62.7 °F /  17.1 °C 61.5 °F /  16.4 °C 30.13 in /  1020.2 hPa SSW 1.4 mph /  2.3 km/h 2.3 mph /  3.7 km/h 96 % 0.01 in /  0.25 mm
03:32 62.7 °F /  17.1 °C 61.5 °F /  16.4 °C 30.13 in /  1020.2 hPa WSW 1.3 mph /  2.1 km/h 3.5 mph /  5.6 km/h 96 % 0.01 in /  0.25 mm
03:37 62.7 °F /  17.1 °C 61.5 °F /  16.4 °C 30.13 in /  1020.2 hPa South 1.1 mph /  1.8 km/h 4.6 mph /  7.4 km/h 96 % 0.01 in /  0.25 mm
03:42 62.7 °F /  17.1 °C 61.5 °F /  16.4 °C 30.13 in /  1020.2 hPa SSW 0.3 mph /  0.5 km/h 3.5 mph /  5.6 km/h 96 % 0.02 in /  0.51 mm
03:47 62.7 °F /  17.1 °C 61.5 °F /  16.4 °C 30.12 in /  1019.9 hPa SSW 1.6 mph /  2.6 km/h 3.5 mph /  5.6 km/h 96 % 0.02 in /  0.51 mm
03:52 62.7 °F /  17.1 °C 61.5 °F /  16.4 °C 30.12 in /  1019.9 hPa SW 0.7 mph /  1.1 km/h 3.5 mph /  5.6 km/h 96 % 0.02 in /  0.51 mm
03:57 62.7 °F /  17.1 °C 61.5 °F /  16.4 °C 30.11 in /  1019.5 hPa South 2.0 mph /  3.2 km/h 3.5 mph /  5.6 km/h 96 % 0.01 in /  0.25 mm
04:02 62.7 °F /  17.1 °C 61.8 °F /  16.6 °C 30.11 in /  1019.5 hPa SE 1.2 mph /  1.9 km/h 3.5 mph /  5.6 km/h 97 % 0.01 in /  0.25 mm
04:08 62.6 °F /  17 °C 61.4 °F /  16.3 °C 30.12 in /  1019.9 hPa SSW 0.6 mph /  1 km/h 3.5 mph /  5.6 km/h 96 % 0.01 in /  0.25 mm
04:13 62.6 °F /  17 °C 61.4 °F /  16.3 °C 30.11 in /  1019.5 hPa SSW 2.0 mph /  3.2 km/h 3.5 mph /  5.6 km/h 96 % 0.01 in /  0.25 mm
04:18 62.6 °F /  17 °C 61.4 °F /  16.3 °C 30.11 in /  1019.5 hPa SSW 2.7 mph /  4.3 km/h 4.0 mph /  6.4 km/h 96 % 0.02 in /  0.51 mm
04:23 62.6 °F /  17 °C 61.4 °F /  16.3 °C 30.13 in /  1020.2 hPa SSW 0.7 mph /  1.1 km/h 4.0 mph /  6.4 km/h 96 % 0.02 in /  0.51 mm
04:28 62.5 °F /  16.9 °C 61.6 °F /  16.4 °C 30.10 in /  1019.2 hPa SSW 0.6 mph /  1 km/h 2.3 mph /  3.7 km/h 97 % 0.02 in /  0.51 mm
04:34 62.5 °F /  16.9 °C 61.6 °F /  16.4 °C 30.09 in /  1018.8 hPa SSW 2.3 mph /  3.7 km/h 3.5 mph /  5.6 km/h 97 % 0.02 in /  0.51 mm
04:39 62.5 °F /  16.9 °C 61.3 °F /  16.3 °C 30.13 in /  1020.2 hPa SSW 1.0 mph /  1.6 km/h 2.3 mph /  3.7 km/h 96 % 0.01 in /  0.25 mm
04:44 62.4 °F /  16.9 °C 61.2 °F /  16.2 °C 30.13 in /  1020.2 hPa WSW 2.1 mph /  3.4 km/h 3.5 mph /  5.6 km/h 96 % 0.01 in /  0.25 mm
04:49 62.4 °F /  16.9 °C 61.2 °F /  16.2 °C 30.13 in /  1020.2 hPa WSW 0.2 mph /  0.3 km/h 4.6 mph /  7.4 km/h 96 % 0.01 in /  0.25 mm
04:54 62.3 °F /  16.8 °C 61.1 °F /  16.2 °C 30.13 in /  1020.2 hPa SW 1.7 mph /  2.7 km/h 6.9 mph /  11.1 km/h 96 % 0.02 in /  0.51 mm
04:59 62.3 °F /  16.8 °C 61.1 °F /  16.2 °C 30.13 in /  1020.2 hPa Calm   1.2 mph /  1.9 km/h 96 % 0.02 in /  0.51 mm
05:04 62.2 °F /  16.8 °C 61.0 °F /  16.1 °C 30.12 in /  1019.9 hPa WSW 1.9 mph /  3.1 km/h 2.3 mph /  3.7 km/h 96 % 0.02 in /  0.51 mm
05:09 62.2 °F /  16.8 °C 61.0 °F /  16.1 °C 30.12 in /  1019.9 hPa SW 0.7 mph /  1.1 km/h 2.3 mph /  3.7 km/h 96 % 0.02 in /  0.51 mm
05:14 62.2 °F /  16.8 °C 61.0 °F /  16.1 °C 30.12 in /  1019.9 hPa SSW 0.6 mph /  1 km/h 4.6 mph /  7.4 km/h 96 % 0.02 in /  0.51 mm
05:19 62.1 °F /  16.7 °C 60.9 °F /  16.1 °C 30.12 in /  1019.9 hPa SSW 1.2 mph /  1.9 km/h 2.3 mph /  3.7 km/h 96 % 0.01 in /  0.25 mm
05:24 62.1 °F /  16.7 °C 60.9 °F /  16.1 °C 30.13 in /  1020.2 hPa WSW 0.7 mph /  1.1 km/h 3.5 mph /  5.6 km/h 96 % 0.01 in /  0.25 mm
05:28 62.1 °F /  16.7 °C 60.9 °F /  16.1 °C 30.12 in /  1019.9 hPa SSW 1.0 mph /  1.6 km/h 4.6 mph /  7.4 km/h 96 % 0.02 in /  0.51 mm
05:34 62.0 °F /  16.7 °C 60.8 °F /  16 °C 30.13 in /  1020.2 hPa SW 0.5 mph /  0.8 km/h 3.5 mph /  5.6 km/h 96 % 0.02 in /  0.51 mm
05:44 62.0 °F /  16.7 °C 60.8 °F /  16 °C 30.13 in /  1020.2 hPa WNW 0.4 mph /  0.6 km/h 3.5 mph /  5.6 km/h 96 % 0.02 in /  0.51 mm
05:49 62.0 °F /  16.7 °C 61.1 °F /  16.2 °C 30.14 in /  1020.5 hPa SW 1.8 mph /  2.9 km/h 3.5 mph /  5.6 km/h 97 % 0.02 in /  0.51 mm
05:54 62.0 °F /  16.7 °C 61.1 °F /  16.2 °C 30.13 in /  1020.2 hPa WSW 1.7 mph /  2.7 km/h 3.5 mph /  5.6 km/h 97 % 0.01 in /  0.25 mm
05:59 62.0 °F /  16.7 °C 61.1 °F /  16.2 °C 30.13 in /  1020.2 hPa WSW 2.4 mph /  3.9 km/h 4.6 mph /  7.4 km/h 97 % 0.01 in /  0.25 mm
06:04 62.1 °F /  16.7 °C 61.2 °F /  16.2 °C 30.13 in /  1020.2 hPa West 0.1 mph /  0.2 km/h 1.2 mph /  1.9 km/h 97 % 0.02 in /  0.51 mm
06:09 62.1 °F /  16.7 °C 61.2 °F /  16.2 °C 30.13 in /  1020.2 hPa WSW 1.4 mph /  2.3 km/h 3.0 mph /  4.8 km/h 97 % 0.02 in /  0.51 mm
06:14 62.1 °F /  16.7 °C 61.2 °F /  16.2 °C 30.13 in /  1020.2 hPa Calm     97 % 0.02 in /  0.51 mm
06:19 62.1 °F /  16.7 °C 61.2 °F /  16.2 °C 30.10 in /  1019.2 hPa WSW 0.3 mph /  0.5 km/h 2.0 mph /  3.2 km/h 97 % 0.02 in /  0.51 mm
06:24 62.2 °F /  16.8 °C 61.3 °F /  16.3 °C 30.09 in /  1018.8 hPa SW 2.0 mph /  3.2 km/h 4.6 mph /  7.4 km/h 97 % 0.02 in /  0.51 mm
06:29 62.2 °F /  16.8 °C 61.3 °F /  16.3 °C 30.09 in /  1018.8 hPa SW 1.5 mph /  2.4 km/h 4.6 mph /  7.4 km/h 97 % 0.01 in /  0.25 mm
06:34 62.2 °F /  16.8 °C 61.3 °F /  16.3 °C 30.09 in /  1018.8 hPa Calm   1.2 mph /  1.9 km/h 97 % 0.01 in /  0.25 mm
06:39 62.1 °F /  16.7 °C 61.2 °F /  16.2 °C 30.09 in /  1018.8 hPa Calm   1.2 mph /  1.9 km/h 97 % 0.01 in /  0.25 mm
06:44 62.1 °F /  16.7 °C 61.2 °F /  16.2 °C 30.08 in /  1018.5 hPa Calm   2.3 mph /  3.7 km/h 97 % 0.02 in /  0.51 mm
06:49 62.0 °F /  16.7 °C 61.1 °F /  16.2 °C 30.07 in /  1018.2 hPa SW 0.2 mph /  0.3 km/h 1.2 mph /  1.9 km/h 97 % 0.02 in /  0.51 mm
06:54 62.0 °F /  16.7 °C 61.1 °F /  16.2 °C 30.07 in /  1018.2 hPa SSE 0.4 mph /  0.6 km/h 2.3 mph /  3.7 km/h 97 % 0.02 in /  0.51 mm
06:59 61.9 °F /  16.6 °C 61.0 °F /  16.1 °C 30.07 in /  1018.2 hPa SSW 1.0 mph /  1.6 km/h 2.3 mph /  3.7 km/h 97 % 0.02 in /  0.51 mm
07:04 61.9 °F /  16.6 °C 61.0 °F /  16.1 °C 30.07 in /  1018.2 hPa SE 0.5 mph /  0.8 km/h 2.0 mph /  3.2 km/h 97 % 0.01 in /  0.25 mm
07:09 61.8 °F /  16.6 °C 60.9 °F /  16.1 °C 30.06 in /  1017.8 hPa SE 0.3 mph /  0.5 km/h 2.3 mph /  3.7 km/h 97 % 0.01 in /  0.25 mm
07:14 61.8 °F /  16.6 °C 60.9 °F /  16.1 °C 30.06 in /  1017.8 hPa SSW 0.1 mph /  0.2 km/h 1.2 mph /  1.9 km/h 97 % 0.01 in /  0.25 mm
07:19 61.8 °F /  16.6 °C 60.9 °F /  16.1 °C 30.06 in /  1017.8 hPa Calm     97 % 0.02 in /  0.51 mm
07:24 61.7 °F /  16.5 °C 60.8 °F /  16 °C 30.05 in /  1017.5 hPa SSW 0.2 mph /  0.3 km/h 1.2 mph /  1.9 km/h 97 % 0.02 in /  0.51 mm
07:29 61.7 °F /  16.5 °C 60.8 °F /  16 °C 30.06 in /  1017.8 hPa Calm     97 % 0.02 in /  0.51 mm
07:34 61.7 °F /  16.5 °C 60.8 °F /  16 °C 30.06 in /  1017.8 hPa West 0.8 mph /  1.3 km/h 2.3 mph /  3.7 km/h 97 % 0.02 in /  0.51 mm
07:39 61.6 °F /  16.4 °C 60.7 °F /  15.9 °C 30.05 in /  1017.5 hPa SW 0.9 mph /  1.4 km/h 2.0 mph /  3.2 km/h 97 % 0.02 in /  0.51 mm
07:45 61.6 °F /  16.4 °C 60.7 °F /  15.9 °C 30.05 in /  1017.5 hPa Calm   1.2 mph /  1.9 km/h 97 % 0.01 in /  0.25 mm
07:50 61.6 °F /  16.4 °C 60.7 °F /  15.9 °C 30.05 in /  1017.5 hPa WSW 0.3 mph /  0.5 km/h 1.2 mph /  1.9 km/h 97 % 0.01 in /  0.25 mm
07:54 61.6 °F /  16.4 °C 60.7 °F /  15.9 °C 30.05 in /  1017.5 hPa Calm     97 % 0.01 in /  0.25 mm
07:59 61.6 °F /  16.4 °C 60.7 °F /  15.9 °C 30.04 in /  1017.2 hPa SSW 0.4 mph /  0.6 km/h 2.3 mph /  3.7 km/h 97 % 0.02 in /  0.51 mm
08:05 61.6 °F /  16.4 °C 60.7 °F /  15.9 °C 30.05 in /  1017.5 hPa SW 0.3 mph /  0.5 km/h 2.0 mph /  3.2 km/h 97 % 0.02 in /  0.51 mm
08:10 61.6 °F /  16.4 °C 60.7 °F /  15.9 °C 30.05 in /  1017.5 hPa Calm     97 % 0.02 in /  0.51 mm
08:15 61.7 °F /  16.5 °C 60.8 °F /  16 °C 30.10 in /  1019.2 hPa SSW 0.1 mph /  0.2 km/h 3.0 mph /  4.8 km/h 97 % 0.02 in /  0.51 mm
08:20 61.7 °F /  16.5 °C 60.8 °F /  16 °C 30.05 in /  1017.5 hPa Calm   1.2 mph /  1.9 km/h 97 % 0.01 in /  0.25 mm
08:25 61.8 °F /  16.6 °C 60.9 °F /  16.1 °C 30.05 in /  1017.5 hPa Calm   1.2 mph /  1.9 km/h 97 % 0.01 in /  0.25 mm
08:30 61.8 °F /  16.6 °C 60.9 °F /  16.1 °C 30.11 in /  1019.5 hPa Calm     97 % 0.02 in /  0.51 mm
08:35 61.9 °F /  16.6 °C 61.0 °F /  16.1 °C 30.11 in /  1019.5 hPa SW 0.4 mph /  0.6 km/h 6.9 mph /  11.1 km/h 97 % 0.02 in /  0.51 mm
08:40 62.0 °F /  16.7 °C 61.1 °F /  16.2 °C 30.10 in /  1019.2 hPa Calm   4.6 mph /  7.4 km/h 97 % 0.02 in /  0.51 mm
08:45 62.0 °F /  16.7 °C 61.1 °F /  16.2 °C 30.11 in /  1019.5 hPa Calm     97 % 0.02 in /  0.51 mm
08:50 62.1 °F /  16.7 °C 61.2 °F /  16.2 °C 30.06 in /  1017.8 hPa SW 0.4 mph /  0.6 km/h 2.0 mph /  3.2 km/h 97 % 0.02 in /  0.51 mm
08:55 62.2 °F /  16.8 °C 61.3 °F /  16.3 °C 30.10 in /  1019.2 hPa SSW 1.1 mph /  1.8 km/h 3.5 mph /  5.6 km/h 97 % 0.02 in /  0.51 mm
08:57 62.2 °F /  16.8 °C 61.3 °F /  16.3 °C 30.09 in /  1018.8 hPa South 1.4 mph /  2.3 km/h 3.5 mph /  5.6 km/h 97 % 0.01 in /  0.25 mm
09:02 62.3 °F /  16.8 °C 61.4 °F /  16.3 °C 30.05 in /  1017.5 hPa SW 1.6 mph /  2.6 km/h 3.0 mph /  4.8 km/h 97 % 0.01 in /  0.25 mm
09:07 62.4 °F /  16.9 °C 61.5 °F /  16.4 °C 30.05 in /  1017.5 hPa WSW 0.4 mph /  0.6 km/h 1.2 mph /  1.9 km/h 97 % 0.02 in /  0.51 mm
09:12 62.5 °F /  16.9 °C 61.6 °F /  16.4 °C 30.10 in /  1019.2 hPa Calm   2.3 mph /  3.7 km/h 97 % 0.02 in /  0.51 mm
09:17 62.6 °F /  17 °C 61.7 °F /  16.5 °C 30.09 in /  1018.8 hPa SW 0.3 mph /  0.5 km/h 3.5 mph /  5.6 km/h 97 % 0.02 in /  0.51 mm
09:22 62.8 °F /  17.1 °C 62.2 °F /  16.8 °C 30.09 in /  1018.8 hPa WSW 1.5 mph /  2.4 km/h 3.5 mph /  5.6 km/h 98 % 0.02 in /  0.51 mm
09:27 63.0 °F /  17.2 °C 62.1 °F /  16.7 °C 30.09 in /  1018.8 hPa SSE 3.9 mph /  6.3 km/h 4.6 mph /  7.4 km/h 97 % 0.02 in /  0.51 mm
09:32 63.4 °F /  17.4 °C 62.8 °F /  17.1 °C 30.09 in /  1018.8 hPa West 1.0 mph /  1.6 km/h 3.5 mph /  5.6 km/h 98 % 0.01 in /  0.25 mm
09:37 63.8 °F /  17.7 °C 63.2 °F /  17.3 °C 30.09 in /  1018.8 hPa WSW 1.1 mph /  1.8 km/h 3.5 mph /  5.6 km/h 98 % 0.01 in /  0.25 mm
09:42 64.4 °F /  18 °C 63.8 °F /  17.7 °C 30.04 in /  1017.2 hPa SW 1.8 mph /  2.9 km/h 5.0 mph /  8 km/h 98 % 0.01 in /  0.25 mm
09:47 64.9 °F /  18.3 °C 64.3 °F /  17.9 °C 30.06 in /  1017.8 hPa SW 0.2 mph /  0.3 km/h 3.5 mph /  5.6 km/h 98 % 0.01 in /  0.25 mm
09:52 65.4 °F /  18.6 °C 64.5 °F /  18.1 °C 30.05 in /  1017.5 hPa SSW 3.4 mph /  5.5 km/h 9.2 mph /  14.8 km/h 97 % 0.01 in /  0.25 mm
09:58 65.7 °F /  18.7 °C 64.5 °F /  18.1 °C 30.05 in /  1017.5 hPa WSW 2.4 mph /  3.9 km/h 5.8 mph /  9.3 km/h 96 % 0.02 in /  0.51 mm
10:03 66.0 °F /  18.9 °C 64.5 °F /  18.1 °C 30.04 in /  1017.2 hPa WSW 0.7 mph /  1.1 km/h 2.3 mph /  3.7 km/h 95 % 0.02 in /  0.51 mm
10:08 66.4 °F /  19.1 °C 64.9 °F /  18.3 °C 30.08 in /  1018.5 hPa SW 5.3 mph /  8.5 km/h 8.1 mph /  13 km/h 95 % 0.01 in /  0.25 mm
10:13 66.7 °F /  19.3 °C 64.6 °F /  18.1 °C 30.08 in /  1018.5 hPa SSW 0.6 mph /  1 km/h 2.3 mph /  3.7 km/h 93 % 0.01 in /  0.25 mm
10:18 67.1 °F /  19.5 °C 64.7 °F /  18.2 °C 30.07 in /  1018.2 hPa SSW 3.8 mph /  6.1 km/h 5.8 mph /  9.3 km/h 92 % 0.01 in /  0.25 mm
10:23 67.7 °F /  19.8 °C 65.3 °F /  18.5 °C 30.07 in /  1018.2 hPa West 0.4 mph /  0.6 km/h 3.5 mph /  5.6 km/h 92 % 0.01 in /  0.25 mm
10:28 68.5 °F /  20.3 °C 65.4 °F /  18.6 °C 30.07 in /  1018.2 hPa SE 0.3 mph /  0.5 km/h 4.6 mph /  7.4 km/h 90 % 0.01 in /  0.25 mm
10:33 69.2 °F /  20.7 °C 65.8 °F /  18.8 °C 30.08 in /  1018.5 hPa East 1.0 mph /  1.6 km/h 2.3 mph /  3.7 km/h 89 % 0.01 in /  0.25 mm
10:38 69.9 °F /  21.1 °C 66.2 °F /  19 °C 30.04 in /  1017.2 hPa Calm   1.2 mph /  1.9 km/h 88 % 0.02 in /  0.51 mm
10:43 70.4 °F /  21.3 °C 65.7 °F /  18.7 °C 30.04 in /  1017.2 hPa SW 3.2 mph /  5.1 km/h 5.0 mph /  8 km/h 85 % 0.02 in /  0.51 mm
10:48 71.0 °F /  21.7 °C 65.9 °F /  18.8 °C 30.08 in /  1018.5 hPa SW 1.5 mph /  2.4 km/h 3.5 mph /  5.6 km/h 84 % 0.02 in /  0.51 mm
10:53 71.5 °F /  21.9 °C 66.4 °F /  19.1 °C 30.08 in /  1018.5 hPa WSW 2.7 mph /  4.3 km/h 5.8 mph /  9.3 km/h 84 % 0.02 in /  0.51 mm
10:58 72.1 °F /  22.3 °C 65.6 °F /  18.7 °C 30.08 in /  1018.5 hPa West 3.8 mph /  6.1 km/h 5.8 mph /  9.3 km/h 80 % 0.01 in /  0.25 mm
11:03 72.5 °F /  22.5 °C 65.6 °F /  18.7 °C 30.08 in /  1018.5 hPa SW 3.5 mph /  5.6 km/h 4.6 mph /  7.4 km/h 79 % 0.01 in /  0.25 mm
11:08 72.9 °F /  22.7 °C 66.0 °F /  18.9 °C 30.08 in /  1018.5 hPa SW 0.2 mph /  0.3 km/h 2.3 mph /  3.7 km/h 79 % 0.01 in /  0.25 mm
11:13 73.5 °F /  23.1 °C 66.6 °F /  19.2 °C 30.08 in /  1018.5 hPa SW 2.1 mph /  3.4 km/h 3.0 mph /  4.8 km/h 79 % 0.02 in /  0.51 mm
11:19 73.9 °F /  23.3 °C 65.5 °F /  18.6 °C 30.07 in /  1018.2 hPa South 5.1 mph /  8.2 km/h 5.1 mph /  8.2 km/h 75 % 0.02 in /  0.51 mm
11:24 74.3 °F /  23.5 °C 65.9 °F /  18.8 °C 30.07 in /  1018.2 hPa Calm   3.5 mph /  5.6 km/h 75 % 0.02 in /  0.51 mm
11:29 74.6 °F /  23.7 °C 65.8 °F /  18.8 °C 30.04 in /  1017.2 hPa South 2.5 mph /  4 km/h 5.8 mph /  9.3 km/h 74 % 0.02 in /  0.51 mm
11:32 74.7 °F /  23.7 °C 65.5 °F /  18.6 °C 30.03 in /  1016.8 hPa WSW 3.6 mph /  5.8 km/h 5.8 mph /  9.3 km/h 73 % 0.02 in /  0.51 mm
11:37 74.7 °F /  23.7 °C 65.9 °F /  18.8 °C 30.02 in /  1016.5 hPa SW 1.1 mph /  1.8 km/h 3.5 mph /  5.6 km/h 74 % 0.01 in /  0.25 mm
11:42 74.7 °F /  23.7 °C 65.5 °F /  18.6 °C 30.02 in /  1016.5 hPa SSW 1.1 mph /  1.8 km/h 4.0 mph /  6.4 km/h 73 % 0.01 in /  0.25 mm
11:48 74.7 °F /  23.7 °C 65.1 °F /  18.4 °C 30.02 in /  1016.5 hPa SSW 4.6 mph /  7.4 km/h 5.0 mph /  8 km/h 72 % 0.02 in /  0.51 mm
11:53 74.6 °F /  23.7 °C 64.6 °F /  18.1 °C 30.02 in /  1016.5 hPa SW 1.9 mph /  3.1 km/h 8.1 mph /  13 km/h 71 % 0.02 in /  0.51 mm
11:58 74.7 °F /  23.7 °C 65.1 °F /  18.4 °C 30.01 in /  1016.1 hPa SSW 1.7 mph /  2.7 km/h 4.6 mph /  7.4 km/h 72 % 0.02 in /  0.51 mm
12:03 74.7 °F /  23.7 °C 64.7 °F /  18.2 °C 30.01 in /  1016.1 hPa WSW 3.9 mph /  6.3 km/h 5.8 mph /  9.3 km/h 71 % 0.02 in /  0.51 mm
12:08 74.8 °F /  23.8 °C 64.4 °F /  18 °C 30.00 in /  1015.8 hPa SSW 3.5 mph /  5.6 km/h 8.1 mph /  13 km/h 70 % 0.02 in /  0.51 mm
12:13 74.7 °F /  23.7 °C 63.9 °F /  17.7 °C 30.00 in /  1015.8 hPa SW 6.4 mph /  10.3 km/h 11.5 mph /  18.5 km/h 69 % 0.01 in /  0.25 mm
12:18 74.6 °F /  23.7 °C 64.2 °F /  17.9 °C 29.99 in /  1015.5 hPa SW 3.5 mph /  5.6 km/h 6.0 mph /  9.7 km/h 70 % 0.02 in /  0.51 mm
12:20 74.6 °F /  23.7 °C 64.2 °F /  17.9 °C 30.00 in /  1015.8 hPa South 5.0 mph /  8 km/h 6.9 mph /  11.1 km/h 70 % 0.02 in /  0.51 mm
12:25 74.4 °F /  23.6 °C 63.6 °F /  17.6 °C 30.00 in /  1015.8 hPa SW 4.0 mph /  6.4 km/h 9.2 mph /  14.8 km/h 69 % 0.02 in /  0.51 mm
12:30 74.4 °F /  23.6 °C 64.0 °F /  17.8 °C 29.99 in /  1015.5 hPa SW 4.4 mph /  7.1 km/h 6.9 mph /  11.1 km/h 70 % 0.02 in /  0.51 mm
12:35 74.3 °F /  23.5 °C 63.9 °F /  17.7 °C 29.99 in /  1015.5 hPa SW 4.0 mph /  6.4 km/h 8.1 mph /  13 km/h 70 % 0.02 in /  0.51 mm
12:40 74.1 °F /  23.4 °C 62.9 °F /  17.2 °C 29.99 in /  1015.5 hPa WSW 7.0 mph /  11.3 km/h 17.3 mph /  27.8 km/h 68 % 0.02 in /  0.51 mm
12:45 73.9 °F /  23.3 °C 62.2 °F /  16.8 °C 29.99 in /  1015.5 hPa SW 8.6 mph /  13.8 km/h 13.8 mph /  22.2 km/h 67 % 0.01 in /  0.25 mm
12:50 73.7 °F /  23.2 °C 62.5 °F /  16.9 °C 29.98 in /  1015.1 hPa WSW 7.7 mph /  12.4 km/h 11.5 mph /  18.5 km/h 68 % 0.01 in /  0.25 mm
12:55 73.7 °F /  23.2 °C 62.5 °F /  16.9 °C 29.98 in /  1015.1 hPa SSW 2.6 mph /  4.2 km/h 5.0 mph /  8 km/h 68 % 0.01 in /  0.25 mm
13:00 73.7 °F /  23.2 °C 62.5 °F /  16.9 °C 29.97 in /  1014.8 hPa South 4.7 mph /  7.6 km/h 11.0 mph /  17.7 km/h 68 % 0.02 in /  0.51 mm
13:05 73.7 °F /  23.2 °C 62.1 °F /  16.7 °C 29.97 in /  1014.8 hPa SSE 4.9 mph /  7.9 km/h 9.2 mph /  14.8 km/h 67 % 0.02 in /  0.51 mm
13:10 73.7 °F /  23.2 °C 62.9 °F /  17.2 °C 29.97 in /  1014.8 hPa SSW 2.1 mph /  3.4 km/h 5.0 mph /  8 km/h 69 % 0.02 in /  0.51 mm
13:15 73.7 °F /  23.2 °C 62.5 °F /  16.9 °C 29.97 in /  1014.8 hPa WSW 4.9 mph /  7.9 km/h 9.2 mph /  14.8 km/h 68 % 0.02 in /  0.51 mm
13:20 73.6 °F /  23.1 °C 62.0 °F /  16.7 °C 29.97 in /  1014.8 hPa SSW 6.4 mph /  10.3 km/h 10.4 mph /  16.7 km/h 67 % 0.01 in /  0.25 mm
13:25 73.6 °F /  23.1 °C 62.4 °F /  16.9 °C 29.97 in /  1014.8 hPa West 2.3 mph /  3.7 km/h 5.8 mph /  9.3 km/h 68 % 0.01 in /  0.25 mm
13:30 73.7 °F /  23.2 °C 62.9 °F /  17.2 °C 29.96 in /  1014.4 hPa SSW 2.0 mph /  3.2 km/h 5.0 mph /  8 km/h 69 % 0.01 in /  0.25 mm
13:35 73.7 °F /  23.2 °C 62.5 °F /  16.9 °C 29.96 in /  1014.4 hPa SSW 9.2 mph /  14.8 km/h 14.0 mph /  22.5 km/h 68 % 0.02 in /  0.51 mm
13:40 73.8 °F /  23.2 °C 62.6 °F /  17 °C 29.96 in /  1014.4 hPa SW 6.1 mph /  9.8 km/h 9.2 mph /  14.8 km/h 68 % 0.02 in /  0.51 mm
13:41 73.8 °F /  23.2 °C 62.2 °F /  16.8 °C 29.96 in /  1014.4 hPa WSW 5.2 mph /  8.4 km/h 8.1 mph /  13 km/h 67 % 0.02 in /  0.51 mm
13:47 73.9 °F /  23.3 °C 62.7 °F /  17.1 °C 29.96 in /  1014.4 hPa SSW 4.0 mph /  6.4 km/h 11.5 mph /  18.5 km/h 68 % 0.02 in /  0.51 mm
13:52 74.1 °F /  23.4 °C 63.3 °F /  17.4 °C 29.96 in /  1014.4 hPa SW 5.4 mph /  8.7 km/h 11.5 mph /  18.5 km/h 69 % 0.02 in /  0.51 mm
13:57 74.3 °F /  23.5 °C 63.1 °F /  17.3 °C 29.95 in /  1014.1 hPa SSW 6.1 mph /  9.8 km/h 6.9 mph /  11.1 km/h 68 % 0.02 in /  0.51 mm
14:02 74.6 °F /  23.7 °C 62.5 °F /  16.9 °C 29.95 in /  1014.1 hPa SSW 3.0 mph /  4.8 km/h 8.1 mph /  13 km/h 66 % 0.01 in /  0.25 mm
14:07 74.8 °F /  23.8 °C 63.1 °F /  17.3 °C 29.95 in /  1014.1 hPa WSW 3.9 mph /  6.3 km/h 6.9 mph /  11.1 km/h 67 % 0.02 in /  0.51 mm
14:12 75.0 °F /  23.9 °C 63.3 °F /  17.4 °C 29.95 in /  1014.1 hPa WSW 6.8 mph /  10.9 km/h 9.2 mph /  14.8 km/h 67 % 0.02 in /  0.51 mm
14:17 75.3 °F /  24.1 °C 63.6 °F /  17.6 °C 29.97 in /  1014.8 hPa SW 5.5 mph /  8.9 km/h 8.1 mph /  13 km/h 67 % 0.02 in /  0.51 mm
14:22 75.5 °F /  24.2 °C 63.8 °F /  17.7 °C 29.97 in /  1014.8 hPa WSW 3.7 mph /  6 km/h 5.8 mph /  9.3 km/h 67 % 0.02 in /  0.51 mm
14:27 75.6 °F /  24.2 °C 63.4 °F /  17.4 °C 29.97 in /  1014.8 hPa SW 4.0 mph /  6.4 km/h 6.0 mph /  9.7 km/h 66 % 0.02 in /  0.51 mm
14:32 75.8 °F /  24.3 °C 63.6 °F /  17.6 °C 29.97 in /  1014.8 hPa SW 5.8 mph /  9.3 km/h 9.0 mph /  14.5 km/h 66 % 0.02 in /  0.51 mm
14:37 75.9 °F /  24.4 °C 64.2 °F /  17.9 °C 29.98 in /  1015.1 hPa SSW 3.2 mph /  5.1 km/h 6.0 mph /  9.7 km/h 67 % 0.01 in /  0.25 mm
14:42 76.0 °F /  24.4 °C 63.8 °F /  17.7 °C 29.97 in /  1014.8 hPa SW 2.5 mph /  4 km/h 6.0 mph /  9.7 km/h 66 % 0.01 in /  0.25 mm
14:47 76.1 °F /  24.5 °C 63.9 °F /  17.7 °C 29.97 in /  1014.8 hPa SW 2.2 mph /  3.5 km/h 5.8 mph /  9.3 km/h 66 % 0.01 in /  0.25 mm
14:52 76.2 °F /  24.6 °C 64.0 °F /  17.8 °C 29.97 in /  1014.8 hPa SSW 2.4 mph /  3.9 km/h 5.8 mph /  9.3 km/h 66 % 0.02 in /  0.51 mm
14:57 76.3 °F /  24.6 °C 64.5 °F /  18.1 °C 29.97 in /  1014.8 hPa SSW 3.0 mph /  4.8 km/h 4.6 mph /  7.4 km/h 67 % 0.02 in /  0.51 mm
15:03 76.4 °F /  24.7 °C 63.8 °F /  17.7 °C 29.95 in /  1014.1 hPa SW 2.3 mph /  3.7 km/h 2.3 mph /  3.7 km/h 65 % 0.02 in /  0.51 mm
15:08 76.4 °F /  24.7 °C 63.8 °F /  17.7 °C 29.95 in /  1014.1 hPa WSW 2.3 mph /  3.7 km/h 5.8 mph /  9.3 km/h 65 % 0.01 in /  0.25 mm
15:13 76.3 °F /  24.6 °C 64.1 °F /  17.8 °C 29.95 in /  1014.1 hPa SSW 1.8 mph /  2.9 km/h 6.0 mph /  9.7 km/h 66 % 0.01 in /  0.25 mm
15:18 76.0 °F /  24.4 °C 63.4 °F /  17.4 °C 29.95 in /  1014.1 hPa WSW 2.8 mph /  4.5 km/h 9.2 mph /  14.8 km/h 65 % 0.01 in /  0.25 mm
15:23 75.7 °F /  24.3 °C 63.5 °F /  17.5 °C 29.95 in /  1014.1 hPa SW 2.5 mph /  4 km/h 4.6 mph /  7.4 km/h 66 % 0.01 in /  0.25 mm
15:28 75.5 °F /  24.2 °C 62.9 °F /  17.2 °C 29.95 in /  1014.1 hPa WSW 1.9 mph /  3.1 km/h 5.8 mph /  9.3 km/h 65 % 0.01 in /  0.25 mm
15:33 75.3 °F /  24.1 °C 63.2 °F /  17.3 °C 29.95 in /  1014.1 hPa SW 3.0 mph /  4.8 km/h 5.0 mph /  8 km/h 66 % 0.01 in /  0.25 mm
15:38 75.1 °F /  23.9 °C 63.4 °F /  17.4 °C 29.95 in /  1014.1 hPa SW 0.4 mph /  0.6 km/h 3.5 mph /  5.6 km/h 67 % 0.01 in /  0.25 mm
15:43 74.9 °F /  23.8 °C 63.2 °F /  17.3 °C 29.95 in /  1014.1 hPa SSW 3.0 mph /  4.8 km/h 5.0 mph /  8 km/h 67 % 0.01 in /  0.25 mm
15:48 74.6 °F /  23.7 °C 62.9 °F /  17.2 °C 29.95 in /  1014.1 hPa WSW 2.1 mph /  3.4 km/h 6.0 mph /  9.7 km/h 67 % 0.01 in /  0.25 mm
15:53 74.4 °F /  23.6 °C 63.1 °F /  17.3 °C 29.95 in /  1014.1 hPa WSW 2.4 mph /  3.9 km/h 4.6 mph /  7.4 km/h 68 % 0.00 in /  0 mm
15:58 74.2 °F /  23.4 °C 63.0 °F /  17.2 °C 29.95 in /  1014.1 hPa SSW 2.5 mph /  4 km/h 4.6 mph /  7.4 km/h 68 % 0.00 in /  0 mm
16:03 74.0 °F /  23.3 °C 62.8 °F /  17.1 °C 29.94 in /  1013.8 hPa SW 0.8 mph /  1.3 km/h 2.3 mph /  3.7 km/h 68 % 0.00 in /  0 mm
16:08 73.9 °F /  23.3 °C 62.7 °F /  17.1 °C 29.95 in /  1014.1 hPa WSW 2.9 mph /  4.7 km/h 3.5 mph /  5.6 km/h 68 % 0.00 in /  0 mm
16:13 73.8 °F /  23.2 °C 63.0 °F /  17.2 °C 29.94 in /  1013.8 hPa WSW 1.3 mph /  2.1 km/h 3.5 mph /  5.6 km/h 69 % 0.00 in /  0 mm
16:18 73.6 °F /  23.1 °C 62.4 °F /  16.9 °C 29.95 in /  1014.1 hPa WSW 0.5 mph /  0.8 km/h 3.5 mph /  5.6 km/h 68 % 0.00 in /  0 mm
16:23 73.5 °F /  23.1 °C 62.7 °F /  17.1 °C 29.95 in /  1014.1 hPa SW 0.9 mph /  1.4 km/h 2.3 mph /  3.7 km/h 69 % 0.00 in /  0 mm
16:29 73.4 °F /  23 °C 62.6 °F /  17 °C 29.96 in /  1014.4 hPa West 2.7 mph /  4.3 km/h 4.6 mph /  7.4 km/h 69 % 0.00 in /  0 mm
16:34 73.3 °F /  22.9 °C 62.9 °F /  17.2 °C 29.95 in /  1014.1 hPa WSW 1.4 mph /  2.3 km/h 4.0 mph /  6.4 km/h 70 % 0.00 in /  0 mm
16:39 73.1 °F /  22.8 °C 62.7 °F /  17.1 °C 29.95 in /  1014.1 hPa West 1.3 mph /  2.1 km/h 3.5 mph /  5.6 km/h 70 % 0.00 in /  0 mm
16:44 73.0 °F /  22.8 °C 62.6 °F /  17 °C 29.96 in /  1014.4 hPa WSW 1.7 mph /  2.7 km/h 6.9 mph /  11.1 km/h 70 % 0.01 in /  0.25 mm
16:49 72.8 °F /  22.7 °C 62.4 °F /  16.9 °C 29.97 in /  1014.8 hPa WSW 1.7 mph /  2.7 km/h 6.9 mph /  11.1 km/h 70 % 0.01 in /  0.25 mm
16:54 72.6 °F /  22.6 °C 62.7 °F /  17.1 °C 29.97 in /  1014.8 hPa WSW 1.7 mph /  2.7 km/h 3.5 mph /  5.6 km/h 71 % 0.01 in /  0.25 mm
16:59 72.5 °F /  22.5 °C 62.6 °F /  17 °C 29.97 in /  1014.8 hPa WNW 3.5 mph /  5.6 km/h 5.8 mph /  9.3 km/h 71 % 0.01 in /  0.25 mm
17:04 72.3 °F /  22.4 °C 62.4 °F /  16.9 °C 29.98 in /  1015.1 hPa WNW 0.2 mph /  0.3 km/h 2.0 mph /  3.2 km/h 71 % 0.01 in /  0.25 mm
17:09 72.1 °F /  22.3 °C 62.2 °F /  16.8 °C 29.97 in /  1014.8 hPa West 0.4 mph /  0.6 km/h 2.3 mph /  3.7 km/h 71 % 0.01 in /  0.25 mm
17:14 72.0 °F /  22.2 °C 62.5 °F /  16.9 °C 29.98 in /  1015.1 hPa WSW 0.3 mph /  0.5 km/h 1.2 mph /  1.9 km/h 72 % 0.01 in /  0.25 mm
17:19 71.8 °F /  22.1 °C 62.3 °F /  16.8 °C 29.97 in /  1014.8 hPa West 1.3 mph /  2.1 km/h 3.5 mph /  5.6 km/h 72 % 0.01 in /  0.25 mm
17:24 71.7 °F /  22.1 °C 62.6 °F /  17 °C 30.02 in /  1016.5 hPa WNW 0.1 mph /  0.2 km/h 3.5 mph /  5.6 km/h 73 % 0.01 in /  0.25 mm
17:29 71.5 °F /  21.9 °C 62.4 °F /  16.9 °C 30.02 in /  1016.5 hPa Calm   1.0 mph /  1.6 km/h 73 % 0.01 in /  0.25 mm
17:34 71.4 °F /  21.9 °C 62.3 °F /  16.8 °C 29.99 in /  1015.5 hPa Calm   2.3 mph /  3.7 km/h 73 % 0.01 in /  0.25 mm
17:40 71.3 °F /  21.8 °C 62.6 °F /  17 °C 29.99 in /  1015.5 hPa West 0.5 mph /  0.8 km/h 2.3 mph /  3.7 km/h 74 % 0.01 in /  0.25 mm
17:45 71.2 °F /  21.8 °C 62.1 °F /  16.7 °C 29.99 in /  1015.5 hPa SW 1.0 mph /  1.6 km/h 4.0 mph /  6.4 km/h 73 % 0.00 in /  0 mm
17:50 71.0 °F /  21.7 °C 61.9 °F /  16.6 °C 29.99 in /  1015.5 hPa WSW 3.0 mph /  4.8 km/h 4.0 mph /  6.4 km/h 73 % 0.00 in /  0 mm
17:55 70.9 °F /  21.6 °C 62.2 °F /  16.8 °C 29.99 in /  1015.5 hPa NW 3.9 mph /  6.3 km/h 6.9 mph /  11.1 km/h 74 % 0.00 in /  0 mm
18:00 70.8 °F /  21.6 °C 62.1 °F /  16.7 °C 30.00 in /  1015.8 hPa WSW 2.7 mph /  4.3 km/h 5.8 mph /  9.3 km/h 74 % 0.00 in /  0 mm
18:05 70.7 °F /  21.5 °C 62.4 °F /  16.9 °C 30.00 in /  1015.8 hPa WNW 0.6 mph /  1 km/h 3.5 mph /  5.6 km/h 75 % 0.00 in /  0 mm
18:10 70.6 °F /  21.4 °C 62.3 °F /  16.8 °C 30.00 in /  1015.8 hPa WNW 2.2 mph /  3.5 km/h 5.8 mph /  9.3 km/h 75 % 0.00 in /  0 mm
18:15 70.4 °F /  21.3 °C 62.1 °F /  16.7 °C 30.01 in /  1016.1 hPa WNW 3.0 mph /  4.8 km/h 6.0 mph /  9.7 km/h 75 % 0.00 in /  0 mm
18:20 70.1 °F /  21.2 °C 61.8 °F /  16.6 °C 30.01 in /  1016.1 hPa WNW 2.3 mph /  3.7 km/h 3.5 mph /  5.6 km/h 75 % 0.00 in /  0 mm
18:25 69.9 °F /  21.1 °C 62.0 °F /  16.7 °C 30.01 in /  1016.1 hPa NNW 1.5 mph /  2.4 km/h 8.1 mph /  13 km/h 76 % 0.00 in /  0 mm
18:30 69.8 °F /  21 °C 61.9 °F /  16.6 °C 30.02 in /  1016.5 hPa WNW 2.3 mph /  3.7 km/h 4.6 mph /  7.4 km/h 76 % 0.00 in /  0 mm
18:35 69.6 °F /  20.9 °C 61.7 °F /  16.5 °C 30.01 in /  1016.1 hPa NW 2.6 mph /  4.2 km/h 5.8 mph /  9.3 km/h 76 % 0.00 in /  0 mm
18:40 69.4 °F /  20.8 °C 61.5 °F /  16.4 °C 30.01 in /  1016.1 hPa WNW 2.5 mph /  4 km/h 4.6 mph /  7.4 km/h 76 % 0.00 in /  0 mm
18:45 69.3 °F /  20.7 °C 61.8 °F /  16.6 °C 30.02 in /  1016.5 hPa WSW 1.6 mph /  2.6 km/h 5.0 mph /  8 km/h 77 % 0.00 in /  0 mm
18:50 69.0 °F /  20.6 °C 61.5 °F /  16.4 °C 30.02 in /  1016.5 hPa WNW 3.3 mph /  5.3 km/h 5.0 mph /  8 km/h 77 % 0.00 in /  0 mm
18:55 68.9 °F /  20.5 °C 61.8 °F /  16.6 °C 30.02 in /  1016.5 hPa NNE 3.6 mph /  5.8 km/h 4.6 mph /  7.4 km/h 78 % 0.00 in /  0 mm
19:00 68.8 °F /  20.4 °C 61.7 °F /  16.5 °C 30.03 in /  1016.8 hPa WNW 3.2 mph /  5.1 km/h 6.9 mph /  11.1 km/h 78 % 0.00 in /  0 mm
19:05 68.6 °F /  20.3 °C 61.1 °F /  16.2 °C 30.02 in /  1016.5 hPa North 1.5 mph /  2.4 km/h 4.6 mph /  7.4 km/h 77 % 0.00 in /  0 mm
19:10 68.3 °F /  20.2 °C 60.4 °F /  15.8 °C 30.03 in /  1016.8 hPa NW 2.5 mph /  4 km/h 5.0 mph /  8 km/h 76 % 0.00 in /  0 mm
19:15 68.2 °F /  20.1 °C 60.3 °F /  15.7 °C 30.03 in /  1016.8 hPa WNW 5.0 mph /  8 km/h 10.4 mph /  16.7 km/h 76 % 0.00 in /  0 mm
19:20 68.1 °F /  20.1 °C 60.2 °F /  15.7 °C 30.03 in /  1016.8 hPa WNW 7.5 mph /  12.1 km/h 11.0 mph /  17.7 km/h 76 % 0.00 in /  0 mm
19:25 68.0 °F /  20 °C 60.2 °F /  15.7 °C 30.03 in /  1016.8 hPa North 4.0 mph /  6.4 km/h 6.9 mph /  11.1 km/h 76 % 0.00 in /  0 mm
19:31 67.9 °F /  19.9 °C 60.0 °F /  15.6 °C 30.04 in /  1017.2 hPa NW 3.0 mph /  4.8 km/h 11.0 mph /  17.7 km/h 76 % 0.00 in /  0 mm
19:36 67.7 °F /  19.8 °C 60.2 °F /  15.7 °C 30.05 in /  1017.5 hPa NNW 5.0 mph /  8 km/h 10.0 mph /  16.1 km/h 77 % 0.00 in /  0 mm
19:41 67.3 °F /  19.6 °C 59.8 °F /  15.4 °C 30.05 in /  1017.5 hPa NNE 2.0 mph /  3.2 km/h 8.0 mph /  12.9 km/h 77 % 0.00 in /  0 mm
19:46 66.9 °F /  19.4 °C 59.5 °F /  15.3 °C 30.05 in /  1017.5 hPa NNE 3.0 mph /  4.8 km/h 9.0 mph /  14.5 km/h 77 % 0.00 in /  0 mm
19:51 66.4 °F /  19.1 °C 58.6 °F /  14.8 °C 30.06 in /  1017.8 hPa North 4.5 mph /  7.2 km/h 12.7 mph /  20.4 km/h 76 % 0.00 in /  0 mm
19:55 66.1 °F /  18.9 °C 58.3 °F /  14.6 °C 30.07 in /  1018.2 hPa NW 3.7 mph /  6 km/h 8.1 mph /  13 km/h 76 % 0.00 in /  0 mm
20:00 65.8 °F /  18.8 °C 58.4 °F /  14.7 °C 30.07 in /  1018.2 hPa North 4.7 mph /  7.6 km/h 9.2 mph /  14.8 km/h 77 % 0.00 in /  0 mm
20:06 65.6 °F /  18.7 °C 58.2 °F /  14.6 °C 30.07 in /  1018.2 hPa North 3.0 mph /  4.8 km/h 12.0 mph /  19.3 km/h 77 % 0.00 in /  0 mm
20:11 65.4 °F /  18.6 °C 57.6 °F /  14.2 °C 30.07 in /  1018.2 hPa North 6.0 mph /  9.7 km/h 10.0 mph /  16.1 km/h 76 % 0.00 in /  0 mm
20:16 65.1 °F /  18.4 °C 57.3 °F /  14.1 °C 30.07 in /  1018.2 hPa NNE 6.0 mph /  9.7 km/h 12.0 mph /  19.3 km/h 76 % 0.00 in /  0 mm
20:20 64.8 °F /  18.2 °C 57.4 °F /  14.1 °C 30.08 in /  1018.5 hPa NNW 6.2 mph /  10 km/h 9.2 mph /  14.8 km/h 77 % 0.00 in /  0 mm
20:26 64.4 °F /  18 °C 56.7 °F /  13.7 °C 30.08 in /  1018.5 hPa North 9.2 mph /  14.8 km/h 10.0 mph /  16.1 km/h 76 % 0.00 in /  0 mm
20:31 64.0 °F /  17.8 °C 55.9 °F /  13.3 °C 30.11 in /  1019.5 hPa NNE 9.0 mph /  14.5 km/h 16.0 mph /  25.7 km/h 75 % 0.00 in /  0 mm
20:36 63.4 °F /  17.4 °C 55.0 °F /  12.8 °C 30.11 in /  1019.5 hPa NNE 9.0 mph /  14.5 km/h 16.0 mph /  25.7 km/h 74 % 0.00 in /  0 mm
20:41 62.8 °F /  17.1 °C 54.4 °F /  12.4 °C 30.12 in /  1019.9 hPa North 9.0 mph /  14.5 km/h 17.0 mph /  27.4 km/h 74 % 0.00 in /  0 mm
20:46 62.3 °F /  16.8 °C 53.9 °F /  12.2 °C 30.13 in /  1020.2 hPa ENE 6.6 mph /  10.6 km/h 11.5 mph /  18.5 km/h 74 % 0.00 in /  0 mm
20:51 61.9 °F /  16.6 °C 53.5 °F /  11.9 °C 30.13 in /  1020.2 hPa NNE 7.3 mph /  11.7 km/h 13.8 mph /  22.2 km/h 74 % 0.00 in /  0 mm
20:56 61.4 °F /  16.3 °C 52.7 °F /  11.5 °C 30.13 in /  1020.2 hPa North 6.9 mph /  11.1 km/h 16.1 mph /  25.9 km/h 73 % 0.00 in /  0 mm
21:01 61.0 °F /  16.1 °C 52.7 °F /  11.5 °C 30.13 in /  1020.2 hPa NNW 9.0 mph /  14.5 km/h 12.7 mph /  20.4 km/h 74 % 0.00 in /  0 mm
21:06 60.6 °F /  15.9 °C 51.9 °F /  11.1 °C 30.14 in /  1020.5 hPa NNW 10.4 mph /  16.7 km/h 17.3 mph /  27.8 km/h 73 % 0.00 in /  0 mm
21:11 60.3 °F /  15.7 °C 51.2 °F /  10.7 °C 30.14 in /  1020.5 hPa North 7.3 mph /  11.7 km/h 15.0 mph /  24.1 km/h 72 % 0.00 in /  0 mm
21:16 60.0 °F /  15.6 °C 51.3 °F /  10.7 °C 30.14 in /  1020.5 hPa North 7.6 mph /  12.2 km/h 16.0 mph /  25.7 km/h 73 % 0.00 in /  0 mm
21:21 59.8 °F /  15.4 °C 50.4 °F /  10.2 °C 30.14 in /  1020.5 hPa NNE 8.1 mph /  13 km/h 13.8 mph /  22.2 km/h 71 % 0.00 in /  0 mm
21:26 59.4 °F /  15.2 °C 49.6 °F /  9.8 °C 30.15 in /  1020.9 hPa North 12.3 mph /  19.8 km/h 17.3 mph /  27.8 km/h 70 % 0.00 in /  0 mm
21:31 59.0 °F /  15 °C 49.2 °F /  9.6 °C 30.15 in /  1020.9 hPa North 11.1 mph /  17.9 km/h 17.3 mph /  27.8 km/h 70 % 0.00 in /  0 mm
21:36 58.6 °F /  14.8 °C 48.8 °F /  9.3 °C 30.16 in /  1021.2 hPa North 9.9 mph /  15.9 km/h 17.3 mph /  27.8 km/h 70 % 0.00 in /  0 mm
21:41 58.2 °F /  14.6 °C 48.5 °F /  9.2 °C 30.16 in /  1021.2 hPa North 11.0 mph /  17.7 km/h 20.7 mph /  33.3 km/h 70 % 0.01 in /  0.25 mm
21:46 58.0 °F /  14.4 °C 47.9 °F /  8.8 °C 30.17 in /  1021.6 hPa NW 5.8 mph /  9.3 km/h 15.0 mph /  24.1 km/h 69 % 0.01 in /  0.25 mm
21:51 57.7 °F /  14.3 °C 47.2 °F /  8.4 °C 30.17 in /  1021.6 hPa North 9.4 mph /  15.1 km/h 11.5 mph /  18.5 km/h 68 % 0.01 in /  0.25 mm
21:57 57.4 °F /  14.1 °C 48.1 °F /  8.9 °C 30.18 in /  1021.9 hPa NE 10.3 mph /  16.6 km/h 12.7 mph /  20.4 km/h 71 % 0.01 in /  0.25 mm
22:02 57.1 °F /  13.9 °C 47.4 °F /  8.6 °C 30.17 in /  1021.6 hPa NW 8.1 mph /  13 km/h 13.8 mph /  22.2 km/h 70 % 0.01 in /  0.25 mm
22:07 56.7 °F /  13.7 °C 46.6 °F /  8.1 °C 30.18 in /  1021.9 hPa North 9.8 mph /  15.8 km/h 17.3 mph /  27.8 km/h 69 % 0.01 in /  0.25 mm
22:12 56.4 °F /  13.6 °C 46.4 °F /  8 °C 30.18 in /  1021.9 hPa NE 8.6 mph /  13.8 km/h 12.7 mph /  20.4 km/h 69 % 0.01 in /  0.25 mm
22:17 56.2 °F /  13.4 °C 46.2 °F /  7.9 °C 30.17 in /  1021.6 hPa North 8.1 mph /  13 km/h 14.0 mph /  22.5 km/h 69 % 0.01 in /  0.25 mm
22:22 55.9 °F /  13.3 °C 45.9 °F /  7.7 °C 30.18 in /  1021.9 hPa NNE 8.6 mph /  13.8 km/h 11.5 mph /  18.5 km/h 69 % 0.01 in /  0.25 mm
22:27 55.7 °F /  13.2 °C 44.9 °F /  7.2 °C 30.17 in /  1021.6 hPa NNE 9.6 mph /  15.4 km/h 14.0 mph /  22.5 km/h 67 % 0.01 in /  0.25 mm
22:32 55.5 °F /  13.1 °C 45.1 °F /  7.3 °C 30.18 in /  1021.9 hPa North 9.1 mph /  14.6 km/h 12.7 mph /  20.4 km/h 68 % 0.01 in /  0.25 mm
22:37 55.3 °F /  12.9 °C 44.1 °F /  6.7 °C 30.18 in /  1021.9 hPa North 10.4 mph /  16.7 km/h 17.3 mph /  27.8 km/h 66 % 0.01 in /  0.25 mm
22:42 55.2 °F /  12.9 °C 44.4 °F /  6.9 °C 30.19 in /  1022.2 hPa NNE 6.6 mph /  10.6 km/h 12.7 mph /  20.4 km/h 67 % 0.00 in /  0 mm
22:47 55.0 °F /  12.8 °C 44.2 °F /  6.8 °C 30.19 in /  1022.2 hPa NNE 5.5 mph /  8.9 km/h 11.0 mph /  17.7 km/h 67 % 0.00 in /  0 mm
22:52 54.8 °F /  12.7 °C 42.9 °F /  6.1 °C 30.19 in /  1022.2 hPa North 6.9 mph /  11.1 km/h 11.5 mph /  18.5 km/h 64 % 0.00 in /  0 mm
22:57 54.7 °F /  12.6 °C 42.8 °F /  6 °C 30.19 in /  1022.2 hPa NNE 5.2 mph /  8.4 km/h 9.2 mph /  14.8 km/h 64 % 0.00 in /  0 mm
23:02 54.5 °F /  12.5 °C 41.7 °F /  5.4 °C 30.19 in /  1022.2 hPa NNW 5.4 mph /  8.7 km/h 10.4 mph /  16.7 km/h 62 % 0.00 in /  0 mm
23:07 54.3 °F /  12.4 °C 41.6 °F /  5.3 °C 30.19 in /  1022.2 hPa NNE 7.1 mph /  11.4 km/h 10.4 mph /  16.7 km/h 62 % 0.00 in /  0 mm
23:13 54.1 °F /  12.3 °C 40.5 °F /  4.7 °C 30.19 in /  1022.2 hPa North 7.6 mph /  12.2 km/h 15.0 mph /  24.1 km/h 60 % 0.00 in /  0 mm
23:21 53.9 °F /  12.2 °C 40.8 °F /  4.9 °C 30.20 in /  1022.6 hPa NNW 6.1 mph /  9.8 km/h 17.3 mph /  27.8 km/h 61 % 0.00 in /  0 mm
23:24 53.9 °F /  12.2 °C 41.2 °F /  5.1 °C 30.20 in /  1022.6 hPa North 5.0 mph /  8 km/h 10.4 mph /  16.7 km/h 62 % 0.00 in /  0 mm
23:28 53.7 °F /  12.1 °C 41.4 °F /  5.2 °C 29.96 in /  1014.4 hPa North 5.9 mph /  9.5 km/h 10.4 mph /  16.7 km/h 63 % 0.00 in /  0 mm
23:29 53.7 °F /  12.1 °C 41.4 °F /  5.2 °C 30.21 in /  1022.9 hPa ENE 5.3 mph /  8.5 km/h 10.4 mph /  16.7 km/h 63 % 0.00 in /  0 mm
23:31 53.7 °F /  12.1 °C 41.4 °F /  5.2 °C 30.21 in /  1022.9 hPa NNW 8.0 mph /  12.9 km/h 12.7 mph /  20.4 km/h 63 % 0.00 in /  0 mm
23:33 53.6 °F /  12 °C 41.3 °F /  5.2 °C 30.21 in /  1022.9 hPa NNW 8.6 mph /  13.8 km/h 13.8 mph /  22.2 km/h 63 % 0.00 in /  0 mm
23:38 53.4 °F /  11.9 °C 40.3 °F /  4.6 °C 30.21 in /  1022.9 hPa NNE 9.2 mph /  14.8 km/h 15.0 mph /  24.1 km/h 61 % 0.00 in /  0 mm
23:43 53.3 °F /  11.8 °C 41.0 °F /  5 °C 30.21 in /  1022.9 hPa NNE 7.8 mph /  12.6 km/h 10.4 mph /  16.7 km/h 63 % 0.00 in /  0 mm
23:48 53.2 °F /  11.8 °C 40.9 °F /  4.9 °C 30.21 in /  1022.9 hPa NNW 5.3 mph /  8.5 km/h 11.5 mph /  18.5 km/h 63 % 0.00 in /  0 mm
23:53 53.0 °F /  11.7 °C 40.3 °F /  4.6 °C 30.21 in /  1022.9 hPa North 9.0 mph /  14.5 km/h 11.5 mph /  18.5 km/h 62 % 0.00 in /  0 mm
Crab Meadow Weather
Compliments of Weather Underground - 3 mb

Script developed by  Jim McMurry - jmcmurry@mwt.net Adapted for the template by  Wim van der Kuil - Leuven-Template.eu

Weather Terms: Waterspout - In general, a tornado occurring over water. Specifically, it refers to a small, relatively weak rotating column of air over water beneath a towering cumulus or cumulonimbus cloud. They occasionally occur over Lake Michigan in late summer with unusually cold air aloft.